Terminal Aerodrome Forecast
Issued by NWS Wilmington, OH

Current Version | Previous Version | Graphics & Text | Print | Product List | Glossary On
Versions: 1 2 3 4 5 6 7 8 9 10 11 12 13 14 15 16 17 18 19 20 21 22 23 24 25
000
FTUS41 KILN 300542
TAFDAY
TAF
KDAY 300542Z 3006/0106 18011KT P6SM OVC110
     FM300900 17006KT P6SM VCSH BKN040 OVC090
     FM301300 17005KT P6SM BKN025
     FM301600 22010KT P6SM VCSH BKN025
     FM301800 24012G22KT P6SM BKN035
     FM302300 25012KT P6SM SCT040
     FM010300 25012KT P6SM BKN040=

USA.gov is the U.S. government's official web portal to all federal, state and local government web resources and services.